sensor_id;sensor_type;location;lat;lon;timestamp;P1;durP1;ratioP1;P2;durP2;ratioP2
54831;SDS011;40730;53.068;6.572;2022-11-06T00:00:54;5.57;;;2.97;;
54831;SDS011;40730;53.068;6.572;2022-11-06T00:03:19;6.95;;;3.40;;
54831;SDS011;40730;53.068;6.572;2022-11-06T00:05:45;7.63;;;4.47;;
54831;SDS011;40730;53.068;6.572;2022-11-06T00:08:31;6.97;;;3.95;;
54831;SDS011;40730;53.068;6.572;2022-11-06T00:11:06;6.25;;;4.18;;
54831;SDS011;40730;53.068;6.572;2022-11-06T00:13:34;8.85;;;4.25;;
54831;SDS011;40730;53.068;6.572;2022-11-06T00:16:03;8.95;;;3.85;;
54831;SDS011;40730;53.068;6.572;2022-11-06T00:18:30;7.90;;;4.28;;
54831;SDS011;40730;53.068;6.572;2022-11-06T00:20:56;8.73;;;4.57;;
54831;SDS011;40730;53.068;6.572;2022-11-06T00:23:22;10.20;;;4.65;;
54831;SDS011;40730;53.068;6.572;2022-11-06T00:25:48;8.15;;;4.82;;
54831;SDS011;40730;53.068;6.572;2022-11-06T00:28:17;14.02;;;5.68;;
54831;SDS011;40730;53.068;6.572;2022-11-06T00:30:43;12.43;;;5.32;;
54831;SDS011;40730;53.068;6.572;2022-11-06T00:33:08;11.43;;;5.72;;
54831;SDS011;40730;53.068;6.572;2022-11-06T00:35:36;11.38;;;5.65;;
54831;SDS011;40730;53.068;6.572;2022-11-06T00:38:03;12.43;;;6.43;;
54831;SDS011;40730;53.068;6.572;2022-11-06T00:40:28;13.18;;;5.60;;
54831;SDS011;40730;53.068;6.572;2022-11-06T00:42:54;12.75;;;6.10;;
54831;SDS011;40730;53.068;6.572;2022-11-06T00:45:20;10.20;;;6.40;;
54831;SDS011;40730;53.068;6.572;2022-11-06T00:47:46;15.52;;;6.85;;
54831;SDS011;40730;53.068;6.572;2022-11-06T00:50:11;15.25;;;7.75;;
54831;SDS011;40730;53.068;6.572;2022-11-06T00:52:37;11.52;;;7.47;;
54831;SDS011;40730;53.068;6.572;2022-11-06T00:55:02;12.38;;;8.07;;
54831;SDS011;40730;53.068;6.572;2022-11-06T00:57:28;14.27;;;7.55;;
54831;SDS011;40730;53.068;6.572;2022-11-06T00:59:54;12.50;;;7.20;;
54831;SDS011;40730;53.068;6.572;2022-11-06T01:02:19;16.17;;;7.78;;
54831;SDS011;40730;53.068;6.572;2022-11-06T01:04:45;12.55;;;7.82;;
54831;SDS011;40730;53.068;6.572;2022-11-06T01:07:11;14.82;;;8.02;;
54831;SDS011;40730;53.068;6.572;2022-11-06T01:09:37;15.20;;;7.07;;
54831;SDS011;40730;53.068;6.572;2022-11-06T01:12:03;14.02;;;8.00;;
54831;SDS011;40730;53.068;6.572;2022-11-06T01:14:28;14.43;;;6.97;;
54831;SDS011;40730;53.068;6.572;2022-11-06T01:16:54;12.85;;;7.10;;
54831;SDS011;40730;53.068;6.572;2022-11-06T01:19:20;16.08;;;8.38;;
54831;SDS011;40730;53.068;6.572;2022-11-06T01:21:47;13.88;;;7.50;;
54831;SDS011;40730;53.068;6.572;2022-11-06T01:24:16;16.80;;;8.48;;
54831;SDS011;40730;53.068;6.572;2022-11-06T01:26:43;13.05;;;7.18;;
54831;SDS011;40730;53.068;6.572;2022-11-06T01:29:11;18.25;;;8.40;;
54831;SDS011;40730;53.068;6.572;2022-11-06T01:31:37;16.08;;;8.70;;
54831;SDS011;40730;53.068;6.572;2022-11-06T01:34:04;13.65;;;8.43;;
54831;SDS011;40730;53.068;6.572;2022-11-06T01:36:30;16.58;;;8.68;;
54831;SDS011;40730;53.068;6.572;2022-11-06T01:38:57;14.32;;;8.55;;
54831;SDS011;40730;53.068;6.572;2022-11-06T01:41:25;12.77;;;8.77;;
54831;SDS011;40730;53.068;6.572;2022-11-06T01:46:29;17.95;;;9.52;;
54831;SDS011;40730;53.068;6.572;2022-11-06T01:49:02;12.13;;;6.93;;
54831;SDS011;40730;53.068;6.572;2022-11-06T01:51:35;18.52;;;9.50;;
54831;SDS011;40730;53.068;6.572;2022-11-06T01:54:09;14.95;;;8.65;;
54831;SDS011;40730;53.068;6.572;2022-11-06T01:56:36;15.68;;;9.27;;
54831;SDS011;40730;53.068;6.572;2022-11-06T01:59:04;16.95;;;8.40;;
54831;SDS011;40730;53.068;6.572;2022-11-06T02:01:31;18.65;;;9.73;;
54831;SDS011;40730;53.068;6.572;2022-11-06T02:04:04;19.83;;;11.32;;
54831;SDS011;40730;53.068;6.572;2022-11-06T02:06:37;15.57;;;9.73;;
54831;SDS011;40730;53.068;6.572;2022-11-06T02:09:03;19.63;;;10.75;;
54831;SDS011;40730;53.068;6.572;2022-11-06T02:11:35;17.08;;;9.93;;
54831;SDS011;40730;53.068;6.572;2022-11-06T02:14:12;16.85;;;11.60;;
54831;SDS011;40730;53.068;6.572;2022-11-06T02:27:24;21.67;;;11.30;;
54831;SDS011;40730;53.068;6.572;2022-11-06T02:29:54;18.70;;;12.07;;
54831;SDS011;40730;53.068;6.572;2022-11-06T02:32:25;19.42;;;12.65;;
54831;SDS011;40730;53.068;6.572;2022-11-06T02:38:00;20.73;;;12.88;;
54831;SDS011;40730;53.068;6.572;2022-11-06T02:40:31;20.25;;;13.30;;
54831;SDS011;40730;53.068;6.572;2022-11-06T02:43:01;21.95;;;13.57;;
54831;SDS011;40730;53.068;6.572;2022-11-06T02:45:30;18.48;;;11.65;;
54831;SDS011;40730;53.068;6.572;2022-11-06T02:47:59;25.33;;;13.48;;
54831;SDS011;40730;53.068;6.572;2022-11-06T02:50:30;21.27;;;13.43;;
54831;SDS011;40730;53.068;6.572;2022-11-06T02:53:06;24.00;;;14.27;;
54831;SDS011;40730;53.068;6.572;2022-11-06T02:55:38;21.20;;;13.57;;
54831;SDS011;40730;53.068;6.572;2022-11-06T02:58:09;23.45;;;14.15;;
54831;SDS011;40730;53.068;6.572;2022-11-06T03:00:38;20.23;;;13.32;;
54831;SDS011;40730;53.068;6.572;2022-11-06T03:03:08;22.10;;;12.93;;
54831;SDS011;40730;53.068;6.572;2022-11-06T03:05:48;28.63;;;15.65;;
54831;SDS011;40730;53.068;6.572;2022-11-06T03:11:15;28.08;;;14.85;;
54831;SDS011;40730;53.068;6.572;2022-11-06T03:14:03;26.20;;;15.52;;
54831;SDS011;40730;53.068;6.572;2022-11-06T03:19:40;20.15;;;13.68;;
54831;SDS011;40730;53.068;6.572;2022-11-06T03:22:24;23.52;;;14.32;;
54831;SDS011;40730;53.068;6.572;2022-11-06T03:28:24;19.45;;;12.88;;
54831;SDS011;40730;53.068;6.572;2022-11-06T03:30:24;22.92;;;15.25;;
54831;SDS011;40730;53.068;6.572;2022-11-06T03:32:55;24.52;;;14.60;;
54831;SDS011;40730;53.068;6.572;2022-11-06T03:35:34;23.83;;;14.82;;
54831;SDS011;40730;53.068;6.572;2022-11-06T03:38:47;21.58;;;13.95;;
54831;SDS011;40730;53.068;6.572;2022-11-06T03:41:17;26.80;;;13.98;;
54831;SDS011;40730;53.068;6.572;2022-11-06T03:43:48;28.38;;;13.90;;
54831;SDS011;40730;53.068;6.572;2022-11-06T03:46:17;25.05;;;15.10;;
54831;SDS011;40730;53.068;6.572;2022-11-06T03:48:47;22.70;;;14.65;;
54831;SDS011;40730;53.068;6.572;2022-11-06T03:51:20;21.73;;;14.23;;
54831;SDS011;40730;53.068;6.572;2022-11-06T03:53:55;21.05;;;12.50;;
54831;SDS011;40730;53.068;6.572;2022-11-06T03:56:44;23.17;;;14.82;;
54831;SDS011;40730;53.068;6.572;2022-11-06T03:59:15;20.58;;;13.23;;
54831;SDS011;40730;53.068;6.572;2022-11-06T04:01:46;22.73;;;14.10;;
54831;SDS011;40730;53.068;6.572;2022-11-06T04:04:23;23.20;;;14.52;;
54831;SDS011;40730;53.068;6.572;2022-11-06T04:07:10;23.95;;;13.65;;
54831;SDS011;40730;53.068;6.572;2022-11-06T04:09:39;23.67;;;13.05;;
54831;SDS011;40730;53.068;6.572;2022-11-06T04:12:27;23.27;;;13.07;;
54831;SDS011;40730;53.068;6.572;2022-11-06T04:15:14;22.08;;;13.15;;
54831;SDS011;40730;53.068;6.572;2022-11-06T04:17:42;26.67;;;13.50;;
54831;SDS011;40730;53.068;6.572;2022-11-06T04:20:12;20.60;;;13.73;;
54831;SDS011;40730;53.068;6.572;2022-11-06T04:23:12;22.38;;;12.23;;
54831;SDS011;40730;53.068;6.572;2022-11-06T04:26:05;20.83;;;12.35;;
54831;SDS011;40730;53.068;6.572;2022-11-06T04:31:50;19.73;;;12.20;;
54831;SDS011;40730;53.068;6.572;2022-11-06T04:34:31;20.52;;;12.93;;
54831;SDS011;40730;53.068;6.572;2022-11-06T04:37:20;18.85;;;12.57;;
54831;SDS011;40730;53.068;6.572;2022-11-06T04:42:29;15.23;;;9.75;;
54831;SDS011;40730;53.068;6.572;2022-11-06T04:45:13;21.83;;;10.60;;
54831;SDS011;40730;53.068;6.572;2022-11-06T04:47:49;18.17;;;11.75;;
54831;SDS011;40730;53.068;6.572;2022-11-06T04:50:16;16.13;;;10.40;;
54831;SDS011;40730;53.068;6.572;2022-11-06T04:52:44;22.33;;;11.10;;
54831;SDS011;40730;53.068;6.572;2022-11-06T04:55:11;19.70;;;10.98;;
54831;SDS011;40730;53.068;6.572;2022-11-06T04:57:37;23.00;;;10.77;;
54831;SDS011;40730;53.068;6.572;2022-11-06T05:00:03;18.23;;;9.95;;
54831;SDS011;40730;53.068;6.572;2022-11-06T05:02:29;19.05;;;10.60;;
54831;SDS011;40730;53.068;6.572;2022-11-06T05:04:54;15.88;;;10.40;;
54831;SDS011;40730;53.068;6.572;2022-11-06T05:07:20;19.20;;;9.48;;
54831;SDS011;40730;53.068;6.572;2022-11-06T05:09:46;20.92;;;8.88;;
54831;SDS011;40730;53.068;6.572;2022-11-06T05:12:11;21.13;;;9.82;;
54831;SDS011;40730;53.068;6.572;2022-11-06T05:14:37;14.88;;;10.05;;
54831;SDS011;40730;53.068;6.572;2022-11-06T05:17:03;18.75;;;9.77;;
54831;SDS011;40730;53.068;6.572;2022-11-06T05:19:28;18.70;;;9.65;;
54831;SDS011;40730;53.068;6.572;2022-11-06T05:21:54;16.13;;;8.05;;
54831;SDS011;40730;53.068;6.572;2022-11-06T05:24:38;19.33;;;8.35;;
54831;SDS011;40730;53.068;6.572;2022-11-06T05:27:03;16.58;;;8.82;;
54831;SDS011;40730;53.068;6.572;2022-11-06T05:29:29;13.77;;;8.55;;
54831;SDS011;40730;53.068;6.572;2022-11-06T05:31:54;13.75;;;8.88;;
54831;SDS011;40730;53.068;6.572;2022-11-06T05:34:20;17.15;;;8.30;;
54831;SDS011;40730;53.068;6.572;2022-11-06T05:36:46;13.77;;;8.40;;
54831;SDS011;40730;53.068;6.572;2022-11-06T05:39:11;21.50;;;9.07;;
54831;SDS011;40730;53.068;6.572;2022-11-06T05:41:37;14.00;;;7.75;;
54831;SDS011;40730;53.068;6.572;2022-11-06T05:44:02;10.52;;;7.43;;
54831;SDS011;40730;53.068;6.572;2022-11-06T05:46:28;16.77;;;7.55;;
54831;SDS011;40730;53.068;6.572;2022-11-06T05:48:54;13.00;;;6.65;;
54831;SDS011;40730;53.068;6.572;2022-11-06T05:51:19;10.02;;;7.72;;
54831;SDS011;40730;53.068;6.572;2022-11-06T05:53:45;11.27;;;7.20;;
54831;SDS011;40730;53.068;6.572;2022-11-06T05:56:11;12.35;;;6.35;;
54831;SDS011;40730;53.068;6.572;2022-11-06T05:58:36;10.40;;;6.40;;
54831;SDS011;40730;53.068;6.572;2022-11-06T06:01:02;9.40;;;5.30;;
54831;SDS011;40730;53.068;6.572;2022-11-06T06:03:28;10.88;;;6.18;;
54831;SDS011;40730;53.068;6.572;2022-11-06T06:05:53;12.20;;;5.95;;
54831;SDS011;40730;53.068;6.572;2022-11-06T06:08:19;13.95;;;6.13;;
54831;SDS011;40730;53.068;6.572;2022-11-06T06:10:45;10.73;;;5.38;;
54831;SDS011;40730;53.068;6.572;2022-11-06T06:13:12;12.05;;;5.50;;
54831;SDS011;40730;53.068;6.572;2022-11-06T06:15:39;12.68;;;6.35;;
54831;SDS011;40730;53.068;6.572;2022-11-06T06:18:05;14.75;;;6.78;;
54831;SDS011;40730;53.068;6.572;2022-11-06T06:20:32;15.25;;;6.00;;
54831;SDS011;40730;53.068;6.572;2022-11-06T06:22:58;10.45;;;5.00;;
54831;SDS011;40730;53.068;6.572;2022-11-06T06:25:24;13.35;;;5.80;;
54831;SDS011;40730;53.068;6.572;2022-11-06T06:27:52;7.13;;;4.28;;
54831;SDS011;40730;53.068;6.572;2022-11-06T06:30:18;13.85;;;6.03;;
54831;SDS011;40730;53.068;6.572;2022-11-06T06:32:45;10.32;;;5.00;;
54831;SDS011;40730;53.068;6.572;2022-11-06T06:35:10;8.32;;;4.60;;
54831;SDS011;40730;53.068;6.572;2022-11-06T06:37:36;18.25;;;5.10;;
54831;SDS011;40730;53.068;6.572;2022-11-06T06:40:02;10.48;;;4.30;;
54831;SDS011;40730;53.068;6.572;2022-11-06T06:42:28;11.52;;;4.20;;
54831;SDS011;40730;53.068;6.572;2022-11-06T06:44:54;12.63;;;4.97;;
54831;SDS011;40730;53.068;6.572;2022-11-06T06:47:19;9.02;;;3.88;;
54831;SDS011;40730;53.068;6.572;2022-11-06T06:49:45;11.00;;;4.20;;
54831;SDS011;40730;53.068;6.572;2022-11-06T06:52:11;11.10;;;4.80;;
54831;SDS011;40730;53.068;6.572;2022-11-06T06:54:36;9.75;;;3.40;;
54831;SDS011;40730;53.068;6.572;2022-11-06T06:57:02;9.27;;;3.70;;
54831;SDS011;40730;53.068;6.572;2022-11-06T06:59:29;9.30;;;2.88;;
54831;SDS011;40730;53.068;6.572;2022-11-06T07:01:55;10.63;;;3.70;;
54831;SDS011;40730;53.068;6.572;2022-11-06T07:04:21;8.45;;;3.22;;
54831;SDS011;40730;53.068;6.572;2022-11-06T07:06:47;13.23;;;3.97;;
54831;SDS011;40730;53.068;6.572;2022-11-06T07:09:13;10.77;;;3.90;;
54831;SDS011;40730;53.068;6.572;2022-11-06T07:11:39;12.60;;;3.20;;
54831;SDS011;40730;53.068;6.572;2022-11-06T07:14:05;10.68;;;3.30;;
54831;SDS011;40730;53.068;6.572;2022-11-06T07:16:30;9.95;;;2.72;;
54831;SDS011;40730;53.068;6.572;2022-11-06T07:18:56;11.90;;;2.55;;
54831;SDS011;40730;53.068;6.572;2022-11-06T07:21:23;11.30;;;2.95;;
54831;SDS011;40730;53.068;6.572;2022-11-06T07:23:49;7.50;;;2.50;;
54831;SDS011;40730;53.068;6.572;2022-11-06T07:26:14;5.97;;;2.05;;
54831;SDS011;40730;53.068;6.572;2022-11-06T07:28:40;11.60;;;2.60;;
54831;SDS011;40730;53.068;6.572;2022-11-06T07:31:06;9.45;;;2.38;;
54831;SDS011;40730;53.068;6.572;2022-11-06T07:33:32;11.93;;;3.08;;
54831;SDS011;40730;53.068;6.572;2022-11-06T07:36:05;9.88;;;3.00;;
54831;SDS011;40730;53.068;6.572;2022-11-06T07:38:33;8.32;;;2.35;;
54831;SDS011;40730;53.068;6.572;2022-11-06T07:41:03;10.32;;;2.40;;
54831;SDS011;40730;53.068;6.572;2022-11-06T07:43:31;9.18;;;2.22;;
54831;SDS011;40730;53.068;6.572;2022-11-06T07:45:57;6.05;;;1.88;;
54831;SDS011;40730;53.068;6.572;2022-11-06T07:48:27;9.00;;;3.38;;
54831;SDS011;40730;53.068;6.572;2022-11-06T07:50:54;11.27;;;2.10;;
54831;SDS011;40730;53.068;6.572;2022-11-06T07:53:20;9.05;;;2.22;;
54831;SDS011;40730;53.068;6.572;2022-11-06T07:55:53;9.57;;;2.53;;
54831;SDS011;40730;53.068;6.572;2022-11-06T07:58:20;6.85;;;1.80;;
54831;SDS011;40730;53.068;6.572;2022-11-06T08:00:51;7.10;;;2.47;;
54831;SDS011;40730;53.068;6.572;2022-11-06T08:03:18;9.70;;;2.15;;
54831;SDS011;40730;53.068;6.572;2022-11-06T08:05:44;14.60;;;2.75;;
54831;SDS011;40730;53.068;6.572;2022-11-06T08:08:10;10.30;;;2.90;;
54831;SDS011;40730;53.068;6.572;2022-11-06T08:10:36;9.88;;;2.78;;
54831;SDS011;40730;53.068;6.572;2022-11-06T08:13:07;7.82;;;2.38;;
54831;SDS011;40730;53.068;6.572;2022-11-06T08:15:37;10.23;;;2.83;;
54831;SDS011;40730;53.068;6.572;2022-11-06T08:18:04;10.35;;;2.53;;
54831;SDS011;40730;53.068;6.572;2022-11-06T08:20:30;4.53;;;1.67;;
54831;SDS011;40730;53.068;6.572;2022-11-06T08:22:59;8.52;;;2.28;;
54831;SDS011;40730;53.068;6.572;2022-11-06T08:25:26;15.05;;;2.60;;
54831;SDS011;40730;53.068;6.572;2022-11-06T08:27:53;8.13;;;2.60;;
54831;SDS011;40730;53.068;6.572;2022-11-06T08:30:20;8.98;;;2.60;;
54831;SDS011;40730;53.068;6.572;2022-11-06T08:32:45;11.02;;;2.33;;
54831;SDS011;40730;53.068;6.572;2022-11-06T08:35:11;6.13;;;2.60;;
54831;SDS011;40730;53.068;6.572;2022-11-06T08:37:37;8.93;;;2.40;;
54831;SDS011;40730;53.068;6.572;2022-11-06T08:40:02;6.20;;;2.13;;
54831;SDS011;40730;53.068;6.572;2022-11-06T08:42:28;8.82;;;1.77;;
54831;SDS011;40730;53.068;6.572;2022-11-06T08:44:54;7.15;;;2.55;;
54831;SDS011;40730;53.068;6.572;2022-11-06T08:47:19;7.65;;;1.90;;
54831;SDS011;40730;53.068;6.572;2022-11-06T08:49:45;4.72;;;1.88;;
54831;SDS011;40730;53.068;6.572;2022-11-06T08:52:10;7.85;;;2.08;;
54831;SDS011;40730;53.068;6.572;2022-11-06T08:54:36;5.40;;;1.48;;
54831;SDS011;40730;53.068;6.572;2022-11-06T08:57:02;9.40;;;1.90;;
54831;SDS011;40730;53.068;6.572;2022-11-06T08:59:28;7.72;;;1.63;;
54831;SDS011;40730;53.068;6.572;2022-11-06T09:01:55;8.48;;;2.50;;
54831;SDS011;40730;53.068;6.572;2022-11-06T09:04:21;4.97;;;1.88;;
54831;SDS011;40730;53.068;6.572;2022-11-06T09:06:46;8.13;;;2.20;;
54831;SDS011;40730;53.068;6.572;2022-11-06T09:09:12;12.70;;;1.48;;
54831;SDS011;40730;53.068;6.572;2022-11-06T09:11:38;9.48;;;1.52;;
54831;SDS011;40730;53.068;6.572;2022-11-06T09:14:03;7.28;;;1.50;;
54831;SDS011;40730;53.068;6.572;2022-11-06T09:16:29;7.32;;;1.80;;
54831;SDS011;40730;53.068;6.572;2022-11-06T09:18:54;6.43;;;1.58;;
54831;SDS011;40730;53.068;6.572;2022-11-06T09:21:21;5.43;;;2.00;;
54831;SDS011;40730;53.068;6.572;2022-11-06T09:23:47;3.80;;;0.95;;
54831;SDS011;40730;53.068;6.572;2022-11-06T09:26:14;7.32;;;1.63;;
54831;SDS011;40730;53.068;6.572;2022-11-06T09:28:40;10.43;;;1.80;;
54831;SDS011;40730;53.068;6.572;2022-11-06T09:31:06;7.10;;;1.30;;
54831;SDS011;40730;53.068;6.572;2022-11-06T09:33:32;8.38;;;1.35;;
54831;SDS011;40730;53.068;6.572;2022-11-06T09:35:58;8.52;;;1.65;;
54831;SDS011;40730;53.068;6.572;2022-11-06T09:38:23;4.93;;;0.90;;
54831;SDS011;40730;53.068;6.572;2022-11-06T09:40:54;7.47;;;1.10;;
54831;SDS011;40730;53.068;6.572;2022-11-06T09:43:45;8.85;;;1.30;;
54831;SDS011;40730;53.068;6.572;2022-11-06T09:46:18;5.63;;;1.33;;
54831;SDS011;40730;53.068;6.572;2022-11-06T09:48:52;7.70;;;1.20;;
54831;SDS011;40730;53.068;6.572;2022-11-06T09:51:36;5.75;;;1.00;;
54831;SDS011;40730;53.068;6.572;2022-11-06T09:54:19;9.30;;;0.80;;
54831;SDS011;40730;53.068;6.572;2022-11-06T09:56:49;5.50;;;0.95;;
54831;SDS011;40730;53.068;6.572;2022-11-06T09:59:19;2.75;;;0.52;;
54831;SDS011;40730;53.068;6.572;2022-11-06T10:01:46;5.50;;;0.75;;
54831;SDS011;40730;53.068;6.572;2022-11-06T10:07:10;4.60;;;0.77;;
54831;SDS011;40730;53.068;6.572;2022-11-06T10:09:46;8.77;;;1.17;;
54831;SDS011;40730;53.068;6.572;2022-11-06T10:17:50;7.28;;;0.77;;
54831;SDS011;40730;53.068;6.572;2022-11-06T10:20:42;5.05;;;0.50;;
54831;SDS011;40730;53.068;6.572;2022-11-06T10:25:54;5.22;;;0.50;;
54831;SDS011;40730;53.068;6.572;2022-11-06T10:34:35;2.90;;;0.70;;
54831;SDS011;40730;53.068;6.572;2022-11-06T10:37:29;2.75;;;0.52;;
54831;SDS011;40730;53.068;6.572;2022-11-06T10:40:00;5.65;;;0.70;;
54831;SDS011;40730;53.068;6.572;2022-11-06T10:42:35;5.05;;;0.52;;
54831;SDS011;40730;53.068;6.572;2022-11-06T10:47:44;9.00;;;0.68;;
54831;SDS011;40730;53.068;6.572;2022-11-06T10:50:20;4.93;;;0.57;;
54831;SDS011;40730;53.068;6.572;2022-11-06T10:58:17;3.92;;;0.60;;
54831;SDS011;40730;53.068;6.572;2022-11-06T11:00:45;5.45;;;0.90;;
54831;SDS011;40730;53.068;6.572;2022-11-06T11:03:15;7.55;;;0.90;;
54831;SDS011;40730;53.068;6.572;2022-11-06T11:06:05;3.50;;;0.70;;
54831;SDS011;40730;53.068;6.572;2022-11-06T11:13:39;7.40;;;1.17;;
54831;SDS011;40730;53.068;6.572;2022-11-06T11:16:16;8.10;;;1.27;;
54831;SDS011;40730;53.068;6.572;2022-11-06T11:18:45;5.22;;;0.90;;
54831;SDS011;40730;53.068;6.572;2022-11-06T11:23:42;6.97;;;1.00;;
54831;SDS011;40730;53.068;6.572;2022-11-06T11:26:27;9.43;;;1.15;;
54831;SDS011;40730;53.068;6.572;2022-11-06T11:28:55;5.70;;;1.02;;
54831;SDS011;40730;53.068;6.572;2022-11-06T11:31:30;7.32;;;1.17;;
54831;SDS011;40730;53.068;6.572;2022-11-06T11:36:45;7.28;;;1.60;;
54831;SDS011;40730;53.068;6.572;2022-11-06T11:39:16;7.13;;;1.13;;
54831;SDS011;40730;53.068;6.572;2022-11-06T11:41:43;8.32;;;0.85;;
54831;SDS011;40730;53.068;6.572;2022-11-06T11:49:26;9.15;;;1.40;;
54831;SDS011;40730;53.068;6.572;2022-11-06T11:51:52;3.80;;;1.20;;
54831;SDS011;40730;53.068;6.572;2022-11-06T11:54:20;5.38;;;1.48;;
54831;SDS011;40730;53.068;6.572;2022-11-06T11:56:50;7.07;;;1.20;;
54831;SDS011;40730;53.068;6.572;2022-11-06T12:01:55;7.00;;;1.00;;
54831;SDS011;40730;53.068;6.572;2022-11-06T12:04:33;10.43;;;1.92;;
54831;SDS011;40730;53.068;6.572;2022-11-06T12:07:05;5.95;;;1.23;;
54831;SDS011;40730;53.068;6.572;2022-11-06T12:09:41;6.05;;;1.00;;
54831;SDS011;40730;53.068;6.572;2022-11-06T12:12:18;6.97;;;1.67;;
54831;SDS011;40730;53.068;6.572;2022-11-06T12:14:46;7.63;;;1.10;;
54831;SDS011;40730;53.068;6.572;2022-11-06T12:17:38;3.80;;;0.80;;
54831;SDS011;40730;53.068;6.572;2022-11-06T12:20:09;3.75;;;0.93;;
54831;SDS011;40730;53.068;6.572;2022-11-06T12:22:42;5.40;;;1.20;;
54831;SDS011;40730;53.068;6.572;2022-11-06T12:25:24;3.60;;;1.00;;
54831;SDS011;40730;53.068;6.572;2022-11-06T12:27:58;5.97;;;0.85;;
54831;SDS011;40730;53.068;6.572;2022-11-06T12:30:25;4.40;;;0.60;;
54831;SDS011;40730;53.068;6.572;2022-11-06T12:35:28;4.68;;;0.43;;
54831;SDS011;40730;53.068;6.572;2022-11-06T12:41:00;7.80;;;0.85;;
54831;SDS011;40730;53.068;6.572;2022-11-06T12:43:38;4.63;;;0.45;;
54831;SDS011;40730;53.068;6.572;2022-11-06T12:59:57;4.75;;;0.68;;
54831;SDS011;40730;53.068;6.572;2022-11-06T13:05:22;2.53;;;0.50;;
54831;SDS011;40730;53.068;6.572;2022-11-06T13:16:38;4.65;;;0.30;;
54831;SDS011;40730;53.068;6.572;2022-11-06T13:22:27;3.53;;;0.32;;
54831;SDS011;40730;53.068;6.572;2022-11-06T13:30:29;7.03;;;0.60;;
54831;SDS011;40730;53.068;6.572;2022-11-06T13:35:29;3.45;;;0.45;;
54831;SDS011;40730;53.068;6.572;2022-11-06T13:37:58;5.50;;;0.40;;
54831;SDS011;40730;53.068;6.572;2022-11-06T13:43:02;5.45;;;0.55;;
54831;SDS011;40730;53.068;6.572;2022-11-06T13:48:30;5.50;;;0.45;;
54831;SDS011;40730;53.068;6.572;2022-11-06T13:51:11;4.85;;;0.50;;
54831;SDS011;40730;53.068;6.572;2022-11-06T13:53:45;4.20;;;0.50;;
54831;SDS011;40730;53.068;6.572;2022-11-06T14:01:59;5.93;;;0.50;;
54831;SDS011;40730;53.068;6.572;2022-11-06T14:04:34;1.95;;;0.30;;
54831;SDS011;40730;53.068;6.572;2022-11-06T14:07:22;4.13;;;0.73;;
54831;SDS011;40730;53.068;6.572;2022-11-06T14:09:52;3.10;;;0.25;;
54831;SDS011;40730;53.068;6.572;2022-11-06T14:12:19;3.67;;;0.28;;
54831;SDS011;40730;53.068;6.572;2022-11-06T14:14:46;6.68;;;1.55;;
54831;SDS011;40730;53.068;6.572;2022-11-06T14:17:18;5.63;;;1.83;;
54831;SDS011;40730;53.068;6.572;2022-11-06T14:22:29;3.45;;;1.58;;
54831;SDS011;40730;53.068;6.572;2022-11-06T14:24:55;6.85;;;1.50;;
54831;SDS011;40730;53.068;6.572;2022-11-06T14:34:57;6.65;;;0.40;;
54831;SDS011;40730;53.068;6.572;2022-11-06T14:40:11;5.03;;;0.30;;
54831;SDS011;40730;53.068;6.572;2022-11-06T14:42:42;4.07;;;0.50;;
54831;SDS011;40730;53.068;6.572;2022-11-06T14:45:11;4.45;;;0.40;;
54831;SDS011;40730;53.068;6.572;2022-11-06T14:53:15;6.40;;;0.47;;
54831;SDS011;40730;53.068;6.572;2022-11-06T14:56:07;3.40;;;0.73;;
54831;SDS011;40730;53.068;6.572;2022-11-06T15:16:39;3.25;;;0.93;;
54831;SDS011;40730;53.068;6.572;2022-11-06T15:24:27;9.70;;;2.83;;
54831;SDS011;40730;53.068;6.572;2022-11-06T15:26:57;4.90;;;1.08;;
54831;SDS011;40730;53.068;6.572;2022-11-06T15:29:28;3.42;;;1.00;;
54831;SDS011;40730;53.068;6.572;2022-11-06T15:32:02;9.27;;;2.05;;
54831;SDS011;40730;53.068;6.572;2022-11-06T15:34:37;7.00;;;1.35;;
54831;SDS011;40730;53.068;6.572;2022-11-06T15:37:10;4.20;;;1.10;;
54831;SDS011;40730;53.068;6.572;2022-11-06T15:39:39;7.20;;;1.50;;
54831;SDS011;40730;53.068;6.572;2022-11-06T15:42:06;7.47;;;2.28;;
54831;SDS011;40730;53.068;6.572;2022-11-06T15:44:36;6.80;;;2.05;;
54831;SDS011;40730;53.068;6.572;2022-11-06T15:47:04;7.10;;;1.70;;
54831;SDS011;40730;53.068;6.572;2022-11-06T15:49:29;7.00;;;2.30;;
54831;SDS011;40730;53.068;6.572;2022-11-06T15:51:59;7.18;;;2.50;;
54831;SDS011;40730;53.068;6.572;2022-11-06T15:54:33;6.50;;;2.38;;
54831;SDS011;40730;53.068;6.572;2022-11-06T15:59:37;9.05;;;2.88;;
54831;SDS011;40730;53.068;6.572;2022-11-06T16:02:04;11.32;;;2.78;;
54831;SDS011;40730;53.068;6.572;2022-11-06T16:04:37;9.88;;;2.60;;
54831;SDS011;40730;53.068;6.572;2022-11-06T16:07:03;6.43;;;3.10;;
54831;SDS011;40730;53.068;6.572;2022-11-06T16:09:29;7.43;;;1.63;;
54831;SDS011;40730;53.068;6.572;2022-11-06T16:11:55;7.57;;;2.35;;
54831;SDS011;40730;53.068;6.572;2022-11-06T16:14:23;10.15;;;3.13;;
54831;SDS011;40730;53.068;6.572;2022-11-06T16:16:49;11.73;;;3.95;;
54831;SDS011;40730;53.068;6.572;2022-11-06T16:24:29;5.85;;;2.80;;
54831;SDS011;40730;53.068;6.572;2022-11-06T16:26:58;8.70;;;3.22;;
54831;SDS011;40730;53.068;6.572;2022-11-06T16:29:25;6.88;;;3.05;;
54831;SDS011;40730;53.068;6.572;2022-11-06T16:32:26;10.27;;;2.55;;
54831;SDS011;40730;53.068;6.572;2022-11-06T16:34:49;7.63;;;2.17;;
54831;SDS011;40730;53.068;6.572;2022-11-06T16:39:45;5.70;;;2.40;;
54831;SDS011;40730;53.068;6.572;2022-11-06T16:44:44;3.65;;;0.93;;
54831;SDS011;40730;53.068;6.572;2022-11-06T16:47:12;4.95;;;1.42;;
54831;SDS011;40730;53.068;6.572;2022-11-06T16:49:39;4.18;;;0.95;;
54831;SDS011;40730;53.068;6.572;2022-11-06T16:54:59;5.20;;;0.82;;
54831;SDS011;40730;53.068;6.572;2022-11-06T16:57:27;3.40;;;1.33;;
54831;SDS011;40730;53.068;6.572;2022-11-06T17:02:45;6.05;;;0.65;;
54831;SDS011;40730;53.068;6.572;2022-11-06T17:05:13;3.45;;;0.45;;
54831;SDS011;40730;53.068;6.572;2022-11-06T17:07:41;2.58;;;0.30;;
54831;SDS011;40730;53.068;6.572;2022-11-06T17:12:50;4.07;;;0.55;;
54831;SDS011;40730;53.068;6.572;2022-11-06T17:15:15;3.75;;;0.45;;
54831;SDS011;40730;53.068;6.572;2022-11-06T17:17:41;2.80;;;0.55;;
54831;SDS011;40730;53.068;6.572;2022-11-06T17:20:17;1.98;;;0.47;;
54831;SDS011;40730;53.068;6.572;2022-11-06T17:22:43;1.40;;;0.40;;
54831;SDS011;40730;53.068;6.572;2022-11-06T17:25:10;1.52;;;0.20;;
54831;SDS011;40730;53.068;6.572;2022-11-06T17:27:35;0.75;;;0.20;;
54831;SDS011;40730;53.068;6.572;2022-11-06T17:30:01;0.80;;;0.40;;
54831;SDS011;40730;53.068;6.572;2022-11-06T17:32:27;2.53;;;0.68;;
54831;SDS011;40730;53.068;6.572;2022-11-06T17:34:52;2.17;;;0.40;;
54831;SDS011;40730;53.068;6.572;2022-11-06T17:37:18;0.90;;;0.40;;
54831;SDS011;40730;53.068;6.572;2022-11-06T17:39:46;2.92;;;1.80;;
54831;SDS011;40730;53.068;6.572;2022-11-06T17:42:12;2.70;;;0.70;;
54831;SDS011;40730;53.068;6.572;2022-11-06T17:44:38;2.38;;;0.77;;
54831;SDS011;40730;53.068;6.572;2022-11-06T17:47:04;2.97;;;0.70;;
54831;SDS011;40730;53.068;6.572;2022-11-06T17:49:30;2.08;;;0.70;;
54831;SDS011;40730;53.068;6.572;2022-11-06T17:51:56;3.15;;;0.40;;
54831;SDS011;40730;53.068;6.572;2022-11-06T17:54:25;4.35;;;0.40;;
54831;SDS011;40730;53.068;6.572;2022-11-06T17:56:56;4.10;;;0.50;;
54831;SDS011;40730;53.068;6.572;2022-11-06T17:59:23;2.78;;;0.68;;
54831;SDS011;40730;53.068;6.572;2022-11-06T18:01:48;3.17;;;0.65;;
54831;SDS011;40730;53.068;6.572;2022-11-06T18:04:15;7.82;;;1.77;;
54831;SDS011;40730;53.068;6.572;2022-11-06T18:06:45;3.85;;;1.10;;